sensor_id;sensor_type;location;lat;lon;timestamp;temperature;humidity
3300;DHT22;1662;49.310;8.134;2023-08-31T00:01:40;15.00;99.90
3300;DHT22;1662;49.310;8.134;2023-08-31T00:04:06;15.10;99.90
3300;DHT22;1662;49.310;8.134;2023-08-31T00:06:40;15.10;99.90
3300;DHT22;1662;49.310;8.134;2023-08-31T00:09:06;15.00;99.90
3300;DHT22;1662;49.310;8.134;2023-08-31T00:11:35;15.00;99.90
3300;DHT22;1662;49.310;8.134;2023-08-31T00:14:01;15.00;99.90
3300;DHT22;1662;49.310;8.134;2023-08-31T00:16:26;15.00;99.90
3300;DHT22;1662;49.310;8.134;2023-08-31T00:18:55;15.00;99.90
3300;DHT22;1662;49.310;8.134;2023-08-31T00:21:21;15.00;99.90
3300;DHT22;1662;49.310;8.134;2023-08-31T00:23:47;14.90;99.90
3300;DHT22;1662;49.310;8.134;2023-08-31T00:26:13;14.90;99.90
3300;DHT22;1662;49.310;8.134;2023-08-31T00:28:40;14.90;99.90
3300;DHT22;1662;49.310;8.134;2023-08-31T00:31:08;14.80;99.90
3300;DHT22;1662;49.310;8.134;2023-08-31T00:33:33;14.80;99.90
3300;DHT22;1662;49.310;8.134;2023-08-31T00:36:00;14.80;99.90
3300;DHT22;1662;49.310;8.134;2023-08-31T00:38:29;14.80;99.90
3300;DHT22;1662;49.310;8.134;2023-08-31T00:40:55;14.80;99.90
3300;DHT22;1662;49.310;8.134;2023-08-31T00:43:21;14.80;99.90
3300;DHT22;1662;49.310;8.134;2023-08-31T00:45:48;14.80;99.90
3300;DHT22;1662;49.310;8.134;2023-08-31T00:48:17;14.70;99.90
3300;DHT22;1662;49.310;8.134;2023-08-31T00:50:45;14.70;99.90
3300;DHT22;1662;49.310;8.134;2023-08-31T00:53:11;14.70;99.90
3300;DHT22;1662;49.310;8.134;2023-08-31T00:55:37;14.70;99.90
3300;DHT22;1662;49.310;8.134;2023-08-31T00:58:05;14.70;99.90
3300;DHT22;1662;49.310;8.134;2023-08-31T01:00:52;14.70;99.90
3300;DHT22;1662;49.310;8.134;2023-08-31T01:03:50;14.70;99.90
3300;DHT22;1662;49.310;8.134;2023-08-31T01:09:19;14.60;99.90
3300;DHT22;1662;49.310;8.134;2023-08-31T01:14:17;14.70;99.90
3300;DHT22;1662;49.310;8.134;2023-08-31T01:16:47;14.70;99.90
3300;DHT22;1662;49.310;8.134;2023-08-31T01:19:39;14.60;99.90
3300;DHT22;1662;49.310;8.134;2023-08-31T01:22:13;14.60;99.90
3300;DHT22;1662;49.310;8.134;2023-08-31T01:24:41;14.60;99.90
3300;DHT22;1662;49.310;8.134;2023-08-31T01:27:06;14.60;99.90
3300;DHT22;1662;49.310;8.134;2023-08-31T01:29:32;14.70;99.90
3300;DHT22;1662;49.310;8.134;2023-08-31T01:31:58;14.60;99.90
3300;DHT22;1662;49.310;8.134;2023-08-31T01:34:23;14.60;99.90
3300;DHT22;1662;49.310;8.134;2023-08-31T01:36:53;14.60;99.90
3300;DHT22;1662;49.310;8.134;2023-08-31T01:39:44;14.60;99.90
3300;DHT22;1662;49.310;8.134;2023-08-31T01:42:13;14.60;99.90
3300;DHT22;1662;49.310;8.134;2023-08-31T01:44:41;14.60;99.90
3300;DHT22;1662;49.310;8.134;2023-08-31T01:47:09;14.60;99.90
3300;DHT22;1662;49.310;8.134;2023-08-31T01:49:37;14.60;99.90
3300;DHT22;1662;49.310;8.134;2023-08-31T01:52:02;14.50;99.90
3300;DHT22;1662;49.310;8.134;2023-08-31T01:54:28;14.50;99.90
3300;DHT22;1662;49.310;8.134;2023-08-31T01:56:54;14.50;99.90
3300;DHT22;1662;49.310;8.134;2023-08-31T01:59:19;14.40;99.90
3300;DHT22;1662;49.310;8.134;2023-08-31T02:01:45;14.40;99.90
3300;DHT22;1662;49.310;8.134;2023-08-31T02:04:11;14.40;99.90
3300;DHT22;1662;49.310;8.134;2023-08-31T02:06:39;14.40;99.90
3300;DHT22;1662;49.310;8.134;2023-08-31T02:09:06;14.30;99.90
3300;DHT22;1662;49.310;8.134;2023-08-31T02:11:32;14.30;99.90
3300;DHT22;1662;49.310;8.134;2023-08-31T02:14:01;14.40;99.90
3300;DHT22;1662;49.310;8.134;2023-08-31T02:16:26;14.40;99.90
3300;DHT22;1662;49.310;8.134;2023-08-31T02:18:52;14.40;99.90
3300;DHT22;1662;49.310;8.134;2023-08-31T02:21:18;14.40;99.90
3300;DHT22;1662;49.310;8.134;2023-08-31T02:23:45;14.30;99.90
3300;DHT22;1662;49.310;8.134;2023-08-31T02:26:11;14.30;99.90
3300;DHT22;1662;49.310;8.134;2023-08-31T02:28:37;14.30;99.90
3300;DHT22;1662;49.310;8.134;2023-08-31T02:31:05;14.30;99.90
3300;DHT22;1662;49.310;8.134;2023-08-31T02:33:31;14.30;99.90
3300;DHT22;1662;49.310;8.134;2023-08-31T02:35:56;14.20;99.90
3300;DHT22;1662;49.310;8.134;2023-08-31T02:38:22;14.20;99.90
3300;DHT22;1662;49.310;8.134;2023-08-31T02:40:48;14.20;99.90
3300;DHT22;1662;49.310;8.134;2023-08-31T02:43:15;14.20;99.90
3300;DHT22;1662;49.310;8.134;2023-08-31T02:45:40;14.10;99.90
3300;DHT22;1662;49.310;8.134;2023-08-31T02:48:07;14.10;99.90
3300;DHT22;1662;49.310;8.134;2023-08-31T02:50:34;14.10;99.90
3300;DHT22;1662;49.310;8.134;2023-08-31T02:53:00;14.10;99.90
3300;DHT22;1662;49.310;8.134;2023-08-31T02:55:26;14.10;99.90
3300;DHT22;1662;49.310;8.134;2023-08-31T02:57:51;14.10;99.90
3300;DHT22;1662;49.310;8.134;2023-08-31T03:00:17;14.10;99.90
3300;DHT22;1662;49.310;8.134;2023-08-31T03:02:47;14.10;99.90
3300;DHT22;1662;49.310;8.134;2023-08-31T03:05:13;14.10;99.90
3300;DHT22;1662;49.310;8.134;2023-08-31T03:07:39;14.10;99.90
3300;DHT22;1662;49.310;8.134;2023-08-31T03:10:05;14.10;99.90
3300;DHT22;1662;49.310;8.134;2023-08-31T03:12:31;14.00;99.90
3300;DHT22;1662;49.310;8.134;2023-08-31T03:14:56;14.00;99.90
3300;DHT22;1662;49.310;8.134;2023-08-31T03:17:22;14.00;99.90
3300;DHT22;1662;49.310;8.134;2023-08-31T03:19:48;14.00;99.90
3300;DHT22;1662;49.310;8.134;2023-08-31T03:22:14;14.00;99.90
3300;DHT22;1662;49.310;8.134;2023-08-31T03:24:40;14.00;99.90
3300;DHT22;1662;49.310;8.134;2023-08-31T03:27:05;14.00;99.90
3300;DHT22;1662;49.310;8.134;2023-08-31T03:29:31;13.90;99.90
3300;DHT22;1662;49.310;8.134;2023-08-31T03:31:59;13.90;99.90
3300;DHT22;1662;49.310;8.134;2023-08-31T03:34:29;13.80;99.90
3300;DHT22;1662;49.310;8.134;2023-08-31T03:36:56;13.80;99.90
3300;DHT22;1662;49.310;8.134;2023-08-31T03:39:21;13.80;99.90
3300;DHT22;1662;49.310;8.134;2023-08-31T03:41:47;13.80;99.90
3300;DHT22;1662;49.310;8.134;2023-08-31T03:44:12;13.80;99.90
3300;DHT22;1662;49.310;8.134;2023-08-31T03:46:38;13.80;99.90
3300;DHT22;1662;49.310;8.134;2023-08-31T03:49:03;13.90;99.90
3300;DHT22;1662;49.310;8.134;2023-08-31T03:51:29;13.90;99.90
3300;DHT22;1662;49.310;8.134;2023-08-31T03:53:55;13.90;99.90
3300;DHT22;1662;49.310;8.134;2023-08-31T03:56:22;13.90;99.90
3300;DHT22;1662;49.310;8.134;2023-08-31T03:58:48;13.90;99.90
3300;DHT22;1662;49.310;8.134;2023-08-31T04:01:13;14.00;99.90
3300;DHT22;1662;49.310;8.134;2023-08-31T04:03:41;14.00;99.90
3300;DHT22;1662;49.310;8.134;2023-08-31T04:06:07;14.00;99.90
3300;DHT22;1662;49.310;8.134;2023-08-31T04:08:32;14.00;99.90
3300;DHT22;1662;49.310;8.134;2023-08-31T04:10:58;14.00;99.90
3300;DHT22;1662;49.310;8.134;2023-08-31T04:13:24;14.00;99.90
3300;DHT22;1662;49.310;8.134;2023-08-31T04:15:49;13.90;99.90
3300;DHT22;1662;49.310;8.134;2023-08-31T04:18:15;13.90;99.90
3300;DHT22;1662;49.310;8.134;2023-08-31T04:20:48;13.90;99.90
3300;DHT22;1662;49.310;8.134;2023-08-31T04:23:15;13.90;99.90
3300;DHT22;1662;49.310;8.134;2023-08-31T04:25:40;13.90;99.90
3300;DHT22;1662;49.310;8.134;2023-08-31T04:28:07;13.90;99.90
3300;DHT22;1662;49.310;8.134;2023-08-31T04:30:33;13.90;99.90
3300;DHT22;1662;49.310;8.134;2023-08-31T04:32:59;13.90;99.90
3300;DHT22;1662;49.310;8.134;2023-08-31T04:35:24;13.90;99.90
3300;DHT22;1662;49.310;8.134;2023-08-31T04:37:50;13.90;99.90
3300;DHT22;1662;49.310;8.134;2023-08-31T04:40:15;13.90;99.90
3300;DHT22;1662;49.310;8.134;2023-08-31T04:42:42;13.90;99.90
3300;DHT22;1662;49.310;8.134;2023-08-31T04:45:07;13.90;99.90
3300;DHT22;1662;49.310;8.134;2023-08-31T04:47:33;13.90;99.90
3300;DHT22;1662;49.310;8.134;2023-08-31T04:49:58;13.90;99.90
3300;DHT22;1662;49.310;8.134;2023-08-31T04:52:25;13.90;99.90
3300;DHT22;1662;49.310;8.134;2023-08-31T04:54:50;13.90;99.90
3300;DHT22;1662;49.310;8.134;2023-08-31T04:57:16;13.90;99.90
3300;DHT22;1662;49.310;8.134;2023-08-31T04:59:41;13.90;99.90
3300;DHT22;1662;49.310;8.134;2023-08-31T05:02:07;13.90;99.90
3300;DHT22;1662;49.310;8.134;2023-08-31T05:04:32;13.80;99.90
3300;DHT22;1662;49.310;8.134;2023-08-31T05:06:58;13.80;99.90
3300;DHT22;1662;49.310;8.134;2023-08-31T05:09:24;14.00;99.90
3300;DHT22;1662;49.310;8.134;2023-08-31T05:11:50;14.20;99.90
3300;DHT22;1662;49.310;8.134;2023-08-31T05:14:16;14.30;99.90
3300;DHT22;1662;49.310;8.134;2023-08-31T05:16:42;14.30;99.90
3300;DHT22;1662;49.310;8.134;2023-08-31T05:19:08;14.30;99.90
3300;DHT22;1662;49.310;8.134;2023-08-31T05:21:35;14.20;99.90
3300;DHT22;1662;49.310;8.134;2023-08-31T05:24:01;14.20;99.90
3300;DHT22;1662;49.310;8.134;2023-08-31T05:26:27;14.10;99.90
3300;DHT22;1662;49.310;8.134;2023-08-31T05:28:52;14.10;99.90
3300;DHT22;1662;49.310;8.134;2023-08-31T05:31:18;14.40;99.90
3300;DHT22;1662;49.310;8.134;2023-08-31T05:33:43;14.80;99.90
3300;DHT22;1662;49.310;8.134;2023-08-31T05:36:09;15.10;99.90
3300;DHT22;1662;49.310;8.134;2023-08-31T05:38:35;15.40;99.90
3300;DHT22;1662;49.310;8.134;2023-08-31T05:41:07;15.50;99.90
3300;DHT22;1662;49.310;8.134;2023-08-31T05:43:34;15.60;99.90
3300;DHT22;1662;49.310;8.134;2023-08-31T05:46:00;15.80;99.90
3300;DHT22;1662;49.310;8.134;2023-08-31T05:48:25;15.80;99.90
3300;DHT22;1662;49.310;8.134;2023-08-31T05:50:51;16.00;99.90
3300;DHT22;1662;49.310;8.134;2023-08-31T05:53:18;16.10;99.90
3300;DHT22;1662;49.310;8.134;2023-08-31T05:55:46;16.00;99.90
3300;DHT22;1662;49.310;8.134;2023-08-31T05:58:12;15.70;99.90
3300;DHT22;1662;49.310;8.134;2023-08-31T06:00:38;15.40;99.90
3300;DHT22;1662;49.310;8.134;2023-08-31T06:03:04;15.10;99.90
3300;DHT22;1662;49.310;8.134;2023-08-31T06:05:31;14.80;99.90
3300;DHT22;1662;49.310;8.134;2023-08-31T06:07:57;14.70;99.90
3300;DHT22;1662;49.310;8.134;2023-08-31T06:10:23;14.60;99.90
3300;DHT22;1662;49.310;8.134;2023-08-31T06:12:49;14.50;99.90
3300;DHT22;1662;49.310;8.134;2023-08-31T06:15:16;14.40;99.90
3300;DHT22;1662;49.310;8.134;2023-08-31T06:17:42;14.40;99.90
3300;DHT22;1662;49.310;8.134;2023-08-31T06:20:08;14.40;99.90
3300;DHT22;1662;49.310;8.134;2023-08-31T06:22:34;14.40;99.90
3300;DHT22;1662;49.310;8.134;2023-08-31T06:25:00;14.40;99.90
3300;DHT22;1662;49.310;8.134;2023-08-31T06:27:30;14.40;99.90
3300;DHT22;1662;49.310;8.134;2023-08-31T06:29:56;14.40;99.90
3300;DHT22;1662;49.310;8.134;2023-08-31T06:32:21;14.40;99.90
3300;DHT22;1662;49.310;8.134;2023-08-31T06:34:48;14.50;99.90
3300;DHT22;1662;49.310;8.134;2023-08-31T06:37:14;14.50;99.90
3300;DHT22;1662;49.310;8.134;2023-08-31T06:39:40;14.50;99.90
3300;DHT22;1662;49.310;8.134;2023-08-31T06:42:06;14.50;99.90
3300;DHT22;1662;49.310;8.134;2023-08-31T06:44:32;14.50;99.90
3300;DHT22;1662;49.310;8.134;2023-08-31T06:46:57;14.50;99.90
3300;DHT22;1662;49.310;8.134;2023-08-31T06:49:25;14.50;99.90
3300;DHT22;1662;49.310;8.134;2023-08-31T06:51:51;14.60;99.90
3300;DHT22;1662;49.310;8.134;2023-08-31T06:54:19;14.60;99.90
3300;DHT22;1662;49.310;8.134;2023-08-31T06:56:44;14.60;99.90
3300;DHT22;1662;49.310;8.134;2023-08-31T06:59:10;14.70;99.90
3300;DHT22;1662;49.310;8.134;2023-08-31T07:01:36;14.70;99.90
3300;DHT22;1662;49.310;8.134;2023-08-31T07:04:01;14.80;99.90
3300;DHT22;1662;49.310;8.134;2023-08-31T07:06:27;14.80;99.90
3300;DHT22;1662;49.310;8.134;2023-08-31T07:08:53;14.80;99.90
3300;DHT22;1662;49.310;8.134;2023-08-31T07:11:23;14.80;99.90
3300;DHT22;1662;49.310;8.134;2023-08-31T07:13:49;14.90;99.90
3300;DHT22;1662;49.310;8.134;2023-08-31T07:16:16;15.00;99.90
3300;DHT22;1662;49.310;8.134;2023-08-31T07:18:42;15.00;99.90
3300;DHT22;1662;49.310;8.134;2023-08-31T07:21:08;15.10;99.90
3300;DHT22;1662;49.310;8.134;2023-08-31T07:23:34;15.10;99.90
3300;DHT22;1662;49.310;8.134;2023-08-31T07:25:59;15.20;99.90
3300;DHT22;1662;49.310;8.134;2023-08-31T07:28:26;15.20;99.90
3300;DHT22;1662;49.310;8.134;2023-08-31T07:31:06;15.20;99.90
3300;DHT22;1662;49.310;8.134;2023-08-31T07:33:33;15.30;99.90
3300;DHT22;1662;49.310;8.134;2023-08-31T07:36:00;15.40;99.90
3300;DHT22;1662;49.310;8.134;2023-08-31T07:38:27;15.40;99.90
3300;DHT22;1662;49.310;8.134;2023-08-31T07:40:53;15.50;99.90
3300;DHT22;1662;49.310;8.134;2023-08-31T07:43:19;15.50;99.90
3300;DHT22;1662;49.310;8.134;2023-08-31T07:45:44;15.60;99.90
3300;DHT22;1662;49.310;8.134;2023-08-31T07:48:10;15.60;99.90
3300;DHT22;1662;49.310;8.134;2023-08-31T07:50:39;15.70;99.90
3300;DHT22;1662;49.310;8.134;2023-08-31T07:53:05;15.80;99.90
3300;DHT22;1662;49.310;8.134;2023-08-31T07:55:31;15.80;99.90
3300;DHT22;1662;49.310;8.134;2023-08-31T07:57:56;15.90;99.90
3300;DHT22;1662;49.310;8.134;2023-08-31T08:00:22;16.00;99.90
3300;DHT22;1662;49.310;8.134;2023-08-31T08:02:47;16.10;99.90
3300;DHT22;1662;49.310;8.134;2023-08-31T08:05:13;16.10;99.90
3300;DHT22;1662;49.310;8.134;2023-08-31T08:07:38;16.20;99.90
3300;DHT22;1662;49.310;8.134;2023-08-31T08:10:06;16.30;99.90
3300;DHT22;1662;49.310;8.134;2023-08-31T08:12:42;16.30;99.90
3300;DHT22;1662;49.310;8.134;2023-08-31T08:15:12;16.40;99.90
3300;DHT22;1662;49.310;8.134;2023-08-31T08:17:38;16.40;99.90
3300;DHT22;1662;49.310;8.134;2023-08-31T08:20:06;16.50;99.90
3300;DHT22;1662;49.310;8.134;2023-08-31T08:22:34;16.60;99.90
3300;DHT22;1662;49.310;8.134;2023-08-31T08:25:01;16.70;99.90
3300;DHT22;1662;49.310;8.134;2023-08-31T08:27:28;16.70;99.90
3300;DHT22;1662;49.310;8.134;2023-08-31T08:29:53;16.70;99.90
3300;DHT22;1662;49.310;8.134;2023-08-31T08:32:19;16.80;99.90
3300;DHT22;1662;49.310;8.134;2023-08-31T08:34:44;16.90;99.90
3300;DHT22;1662;49.310;8.134;2023-08-31T08:37:10;17.00;99.90
3300;DHT22;1662;49.310;8.134;2023-08-31T08:39:38;17.00;99.90
3300;DHT22;1662;49.310;8.134;2023-08-31T08:42:04;17.00;99.90
3300;DHT22;1662;49.310;8.134;2023-08-31T08:44:33;17.10;99.90
3300;DHT22;1662;49.310;8.134;2023-08-31T08:47:01;17.10;99.90
3300;DHT22;1662;49.310;8.134;2023-08-31T08:49:28;17.10;99.90
3300;DHT22;1662;49.310;8.134;2023-08-31T08:51:55;17.10;99.90
3300;DHT22;1662;49.310;8.134;2023-08-31T08:54:22;17.20;99.90
3300;DHT22;1662;49.310;8.134;2023-08-31T08:56:48;17.30;99.90
3300;DHT22;1662;49.310;8.134;2023-08-31T08:59:14;17.40;99.90
3300;DHT22;1662;49.310;8.134;2023-08-31T09:01:40;17.50;99.90
3300;DHT22;1662;49.310;8.134;2023-08-31T09:04:06;17.50;99.90
3300;DHT22;1662;49.310;8.134;2023-08-31T09:06:32;17.50;99.90
3300;DHT22;1662;49.310;8.134;2023-08-31T09:08:58;17.60;99.90
3300;DHT22;1662;49.310;8.134;2023-08-31T09:11:25;17.70;99.90
3300;DHT22;1662;49.310;8.134;2023-08-31T09:13:53;17.80;99.90
3300;DHT22;1662;49.310;8.134;2023-08-31T09:16:29;17.90;99.90
3300;DHT22;1662;49.310;8.134;2023-08-31T09:18:56;18.00;99.90
3300;DHT22;1662;49.310;8.134;2023-08-31T09:21:22;18.10;99.90
3300;DHT22;1662;49.310;8.134;2023-08-31T09:23:59;18.20;99.90
3300;DHT22;1662;49.310;8.134;2023-08-31T09:26:24;18.40;99.90
3300;DHT22;1662;49.310;8.134;2023-08-31T09:28:50;18.40;99.90
3300;DHT22;1662;49.310;8.134;2023-08-31T09:31:17;18.40;99.90
3300;DHT22;1662;49.310;8.134;2023-08-31T09:33:52;18.50;99.90
3300;DHT22;1662;49.310;8.134;2023-08-31T09:36:18;18.50;99.90
3300;DHT22;1662;49.310;8.134;2023-08-31T09:38:44;18.70;99.90
3300;DHT22;1662;49.310;8.134;2023-08-31T09:41:10;18.80;99.90
3300;DHT22;1662;49.310;8.134;2023-08-31T09:43:37;18.80;99.90
3300;DHT22;1662;49.310;8.134;2023-08-31T09:46:04;18.80;99.90
3300;DHT22;1662;49.310;8.134;2023-08-31T09:48:30;18.80;99.90
3300;DHT22;1662;49.310;8.134;2023-08-31T09:50:57;18.90;99.90
3300;DHT22;1662;49.310;8.134;2023-08-31T09:53:28;19.00;99.90
3300;DHT22;1662;49.310;8.134;2023-08-31T09:55:54;19.00;99.90
3300;DHT22;1662;49.310;8.134;2023-08-31T09:58:22;19.10;99.90
3300;DHT22;1662;49.310;8.134;2023-08-31T10:00:52;19.10;99.90
3300;DHT22;1662;49.310;8.134;2023-08-31T10:03:19;19.20;99.90
3300;DHT22;1662;49.310;8.134;2023-08-31T10:05:46;19.30;99.90
3300;DHT22;1662;49.310;8.134;2023-08-31T10:08:12;19.40;99.90
3300;DHT22;1662;49.310;8.134;2023-08-31T10:10:40;19.50;99.90
3300;DHT22;1662;49.310;8.134;2023-08-31T10:13:08;19.70;99.90
3300;DHT22;1662;49.310;8.134;2023-08-31T10:15:37;19.80;99.90
3300;DHT22;1662;49.310;8.134;2023-08-31T10:18:04;19.90;99.90
3300;DHT22;1662;49.310;8.134;2023-08-31T10:20:31;20.10;99.90
3300;DHT22;1662;49.310;8.134;2023-08-31T10:22:59;20.20;99.90
3300;DHT22;1662;49.310;8.134;2023-08-31T10:25:24;20.20;99.90
3300;DHT22;1662;49.310;8.134;2023-08-31T10:27:52;20.30;99.90
3300;DHT22;1662;49.310;8.134;2023-08-31T10:35:51;19.90;99.90
3300;DHT22;1662;49.310;8.134;2023-08-31T10:46:35;19.50;99.90
3300;DHT22;1662;49.310;8.134;2023-08-31T10:51:32;19.40;99.90
3300;DHT22;1662;49.310;8.134;2023-08-31T10:54:22;19.40;99.90
3300;DHT22;1662;49.310;8.134;2023-08-31T10:57:04;19.40;99.90
3300;DHT22;1662;49.310;8.134;2023-08-31T11:07:30;19.10;99.90
3300;DHT22;1662;49.310;8.134;2023-08-31T11:12:34;19.20;99.90
3300;DHT22;1662;49.310;8.134;2023-08-31T11:15:00;19.10;99.90
3300;DHT22;1662;49.310;8.134;2023-08-31T11:17:29;19.10;99.90
3300;DHT22;1662;49.310;8.134;2023-08-31T11:19:56;19.20;99.90
3300;DHT22;1662;49.310;8.134;2023-08-31T11:22:22;19.20;99.90
3300;DHT22;1662;49.310;8.134;2023-08-31T11:24:48;19.40;99.90
3300;DHT22;1662;49.310;8.134;2023-08-31T11:27:14;19.40;99.90
3300;DHT22;1662;49.310;8.134;2023-08-31T11:29:43;19.40;99.90
3300;DHT22;1662;49.310;8.134;2023-08-31T11:32:09;19.40;99.90
3300;DHT22;1662;49.310;8.134;2023-08-31T11:34:35;19.20;99.90
3300;DHT22;1662;49.310;8.134;2023-08-31T11:37:05;19.20;99.90
3300;DHT22;1662;49.310;8.134;2023-08-31T11:39:30;19.10;99.90
3300;DHT22;1662;49.310;8.134;2023-08-31T11:41:56;19.10;99.90
3300;DHT22;1662;49.310;8.134;2023-08-31T11:44:22;19.10;99.90
3300;DHT22;1662;49.310;8.134;2023-08-31T11:46:49;19.00;99.90
3300;DHT22;1662;49.310;8.134;2023-08-31T11:49:19;19.00;99.90
3300;DHT22;1662;49.310;8.134;2023-08-31T11:51:45;19.10;99.90
3300;DHT22;1662;49.310;8.134;2023-08-31T11:54:11;19.40;99.90
3300;DHT22;1662;49.310;8.134;2023-08-31T11:56:42;19.50;99.90
3300;DHT22;1662;49.310;8.134;2023-08-31T11:59:09;19.70;99.90
3300;DHT22;1662;49.310;8.134;2023-08-31T12:01:40;19.90;99.90
3300;DHT22;1662;49.310;8.134;2023-08-31T12:04:10;20.20;99.90
3300;DHT22;1662;49.310;8.134;2023-08-31T12:06:36;20.50;99.90
3300;DHT22;1662;49.310;8.134;2023-08-31T12:09:01;20.80;99.90
3300;DHT22;1662;49.310;8.134;2023-08-31T12:11:30;21.00;99.90
3300;DHT22;1662;49.310;8.134;2023-08-31T12:13:59;21.00;99.90
3300;DHT22;1662;49.310;8.134;2023-08-31T12:16:32;21.00;99.90
3300;DHT22;1662;49.310;8.134;2023-08-31T12:19:04;20.90;99.90
3300;DHT22;1662;49.310;8.134;2023-08-31T12:21:36;20.80;99.90
3300;DHT22;1662;49.310;8.134;2023-08-31T12:24:01;20.60;99.90
3300;DHT22;1662;49.310;8.134;2023-08-31T12:26:28;20.50;99.90
3300;DHT22;1662;49.310;8.134;2023-08-31T12:28:54;20.40;99.90
3300;DHT22;1662;49.310;8.134;2023-08-31T12:31:21;20.50;99.90
3300;DHT22;1662;49.310;8.134;2023-08-31T12:33:47;20.80;99.90
3300;DHT22;1662;49.310;8.134;2023-08-31T12:36:13;21.10;99.90
3300;DHT22;1662;49.310;8.134;2023-08-31T12:38:39;21.30;99.90
3300;DHT22;1662;49.310;8.134;2023-08-31T12:41:04;21.30;99.90
3300;DHT22;1662;49.310;8.134;2023-08-31T12:43:30;21.50;99.90
3300;DHT22;1662;49.310;8.134;2023-08-31T12:45:57;21.80;99.90
3300;DHT22;1662;49.310;8.134;2023-08-31T12:48:23;22.10;99.90
3300;DHT22;1662;49.310;8.134;2023-08-31T12:50:48;22.40;99.90
3300;DHT22;1662;49.310;8.134;2023-08-31T12:53:14;22.70;99.90
3300;DHT22;1662;49.310;8.134;2023-08-31T12:55:40;22.80;99.90
3300;DHT22;1662;49.310;8.134;2023-08-31T12:58:06;23.00;99.90
3300;DHT22;1662;49.310;8.134;2023-08-31T13:00:32;23.30;99.90
3300;DHT22;1662;49.310;8.134;2023-08-31T13:02:57;23.40;99.90
3300;DHT22;1662;49.310;8.134;2023-08-31T13:05:23;23.40;99.90
3300;DHT22;1662;49.310;8.134;2023-08-31T13:07:48;23.30;99.90
3300;DHT22;1662;49.310;8.134;2023-08-31T13:10:14;22.90;99.90
3300;DHT22;1662;49.310;8.134;2023-08-31T13:12:40;22.50;99.90
3300;DHT22;1662;49.310;8.134;2023-08-31T13:15:06;22.10;99.90
3300;DHT22;1662;49.310;8.134;2023-08-31T13:17:33;21.90;99.90
3300;DHT22;1662;49.310;8.134;2023-08-31T13:19:59;21.80;99.90
3300;DHT22;1662;49.310;8.134;2023-08-31T13:22:25;21.70;99.90
3300;DHT22;1662;49.310;8.134;2023-08-31T13:24:51;21.70;99.90
3300;DHT22;1662;49.310;8.134;2023-08-31T13:27:17;22.00;99.90
3300;DHT22;1662;49.310;8.134;2023-08-31T13:29:43;22.50;99.90
3300;DHT22;1662;49.310;8.134;2023-08-31T13:32:09;22.80;99.90
3300;DHT22;1662;49.310;8.134;2023-08-31T13:34:37;23.10;99.90
3300;DHT22;1662;49.310;8.134;2023-08-31T13:37:03;23.20;99.90
3300;DHT22;1662;49.310;8.134;2023-08-31T13:39:35;23.00;99.90
3300;DHT22;1662;49.310;8.134;2023-08-31T13:42:05;22.80;99.90
3300;DHT22;1662;49.310;8.134;2023-08-31T13:44:32;22.50;99.90
3300;DHT22;1662;49.310;8.134;2023-08-31T13:46:58;22.20;99.90
3300;DHT22;1662;49.310;8.134;2023-08-31T13:49:23;21.90;99.90
3300;DHT22;1662;49.310;8.134;2023-08-31T13:51:49;21.90;99.90
3300;DHT22;1662;49.310;8.134;2023-08-31T13:54:14;21.80;99.90
3300;DHT22;1662;49.310;8.134;2023-08-31T13:56:40;21.60;99.90
3300;DHT22;1662;49.310;8.134;2023-08-31T13:59:06;21.40;99.90
3300;DHT22;1662;49.310;8.134;2023-08-31T14:01:31;21.20;99.90
3300;DHT22;1662;49.310;8.134;2023-08-31T14:03:57;21.10;99.90
3300;DHT22;1662;49.310;8.134;2023-08-31T14:06:22;21.00;99.90
3300;DHT22;1662;49.310;8.134;2023-08-31T14:08:48;20.80;99.90
3300;DHT22;1662;49.310;8.134;2023-08-31T14:11:14;20.80;99.90
3300;DHT22;1662;49.310;8.134;2023-08-31T14:13:43;20.70;99.90
3300;DHT22;1662;49.310;8.134;2023-08-31T14:16:08;20.70;99.90
3300;DHT22;1662;49.310;8.134;2023-08-31T14:18:34;20.80;99.90
3300;DHT22;1662;49.310;8.134;2023-08-31T14:21:00;20.90;99.90
3300;DHT22;1662;49.310;8.134;2023-08-31T14:23:26;21.00;99.90
3300;DHT22;1662;49.310;8.134;2023-08-31T14:25:52;21.20;99.90
3300;DHT22;1662;49.310;8.134;2023-08-31T14:28:18;21.20;99.90
3300;DHT22;1662;49.310;8.134;2023-08-31T14:30:43;21.20;99.90
3300;DHT22;1662;49.310;8.134;2023-08-31T14:33:09;21.30;99.90
3300;DHT22;1662;49.310;8.134;2023-08-31T14:35:38;21.30;99.90
3300;DHT22;1662;49.310;8.134;2023-08-31T14:38:05;21.30;99.90
3300;DHT22;1662;49.310;8.134;2023-08-31T14:40:30;21.50;99.90
3300;DHT22;1662;49.310;8.134;2023-08-31T14:42:58;21.80;99.90
3300;DHT22;1662;49.310;8.134;2023-08-31T14:45:23;21.80;99.90
3300;DHT22;1662;49.310;8.134;2023-08-31T14:47:49;21.80;99.90
3300;DHT22;1662;49.310;8.134;2023-08-31T14:50:15;21.90;99.90
3300;DHT22;1662;49.310;8.134;2023-08-31T14:52:40;22.20;99.90
3300;DHT22;1662;49.310;8.134;2023-08-31T14:55:06;22.60;99.90
3300;DHT22;1662;49.310;8.134;2023-08-31T14:57:34;22.90;99.90
3300;DHT22;1662;49.310;8.134;2023-08-31T15:00:00;23.30;99.90
3300;DHT22;1662;49.310;8.134;2023-08-31T15:02:26;23.50;99.90
3300;DHT22;1662;49.310;8.134;2023-08-31T15:04:52;23.70;99.90
3300;DHT22;1662;49.310;8.134;2023-08-31T15:07:20;23.80;99.90
3300;DHT22;1662;49.310;8.134;2023-08-31T15:09:45;23.90;99.90
3300;DHT22;1662;49.310;8.134;2023-08-31T15:12:11;23.70;99.90
3300;DHT22;1662;49.310;8.134;2023-08-31T15:14:37;23.40;99.90
3300;DHT22;1662;49.310;8.134;2023-08-31T15:17:06;23.10;99.90
3300;DHT22;1662;49.310;8.134;2023-08-31T15:19:32;22.90;99.90
3300;DHT22;1662;49.310;8.134;2023-08-31T15:21:58;22.60;99.90
3300;DHT22;1662;49.310;8.134;2023-08-31T15:24:24;22.40;99.90
3300;DHT22;1662;49.310;8.134;2023-08-31T15:26:49;22.20;99.90
3300;DHT22;1662;49.310;8.134;2023-08-31T15:29:15;22.00;99.90
3300;DHT22;1662;49.310;8.134;2023-08-31T15:31:43;21.80;99.90
3300;DHT22;1662;49.310;8.134;2023-08-31T15:34:10;21.60;99.90
3300;DHT22;1662;49.310;8.134;2023-08-31T15:36:40;21.40;99.90
3300;DHT22;1662;49.310;8.134;2023-08-31T15:39:06;21.40;99.90
3300;DHT22;1662;49.310;8.134;2023-08-31T15:41:33;21.20;99.90
3300;DHT22;1662;49.310;8.134;2023-08-31T15:44:02;21.00;99.90
3300;DHT22;1662;49.310;8.134;2023-08-31T15:46:29;21.00;99.90
3300;DHT22;1662;49.310;8.134;2023-08-31T15:48:54;21.00;99.90
3300;DHT22;1662;49.310;8.134;2023-08-31T15:51:20;20.90;99.90
3300;DHT22;1662;49.310;8.134;2023-08-31T15:53:46;20.90;99.90
3300;DHT22;1662;49.310;8.134;2023-08-31T15:56:12;20.80;99.90
3300;DHT22;1662;49.310;8.134;2023-08-31T15:58:39;20.70;99.90
3300;DHT22;1662;49.310;8.134;2023-08-31T16:01:10;20.70;99.90
3300;DHT22;1662;49.310;8.134;2023-08-31T16:03:35;20.60;99.90
3300;DHT22;1662;49.310;8.134;2023-08-31T16:06:02;20.60;99.90
3300;DHT22;1662;49.310;8.134;2023-08-31T16:08:29;20.60;99.90
3300;DHT22;1662;49.310;8.134;2023-08-31T16:10:56;20.50;99.90
3300;DHT22;1662;49.310;8.134;2023-08-31T16:13:24;20.50;99.90
3300;DHT22;1662;49.310;8.134;2023-08-31T16:15:50;20.40;99.90
3300;DHT22;1662;49.310;8.134;2023-08-31T16:18:18;20.30;99.90
3300;DHT22;1662;49.310;8.134;2023-08-31T16:20:44;20.30;99.90
3300;DHT22;1662;49.310;8.134;2023-08-31T16:23:10;20.30;99.90
3300;DHT22;1662;49.310;8.134;2023-08-31T16:25:35;20.30;99.90
3300;DHT22;1662;49.310;8.134;2023-08-31T16:28:02;20.20;99.90
3300;DHT22;1662;49.310;8.134;2023-08-31T16:30:29;20.20;99.90
3300;DHT22;1662;49.310;8.134;2023-08-31T16:32:55;20.20;99.90